Time,TemperatureF,DewpointF,PressureIn,WindDirection,WindDirectionDegrees,WindSpeedMPH,WindSpeedGustMPH,Humidity,HourlyPrecipIn,Conditions,Clouds,dailyrainin,SoftwareType,DateUTC
2013-05-19 00:00:00,78.9,64.8,29.64,SSE,157,13.0,18.0,62,0.00,,---,0.00,VWS V14.01,2013-05-19 05:00:00,
2013-05-19 00:02:00,79.0,64.9,29.64,SSE,159,6.0,16.0,62,0.00,,---,0.00,VWS V14.01,2013-05-19 05:02:00,
2013-05-19 00:05:00,79.0,64.9,29.64,SSE,152,15.0,17.0,62,0.00,,---,0.00,VWS V14.01,2013-05-19 05:05:00,
2013-05-19 00:08:00,79.0,64.9,29.64,South,171,12.0,17.0,62,0.00,,---,0.00,VWS V14.01,2013-05-19 05:08:00,
2013-05-19 00:11:00,78.9,65.2,29.64,South,174,14.0,17.0,63,0.00,,---,0.00,VWS V14.01,2013-05-19 05:11:00,
2013-05-19 00:14:00,78.9,65.2,29.64,SSW,196,7.0,17.0,63,0.00,,---,0.00,VWS V14.01,2013-05-19 05:14:00,
2013-05-19 00:17:00,78.8,65.2,29.64,SE,143,5.0,20.0,63,0.00,,---,0.00,VWS V14.01,2013-05-19 05:17:00,
2013-05-19 00:20:00,78.7,65.1,29.64,South,177,8.0,20.0,63,0.00,,---,0.00,VWS V14.01,2013-05-19 05:20:00,
2013-05-19 00:23:00,78.7,65.1,29.64,SSE,159,8.0,20.0,63,0.00,,---,0.00,VWS V14.01,2013-05-19 05:23:00,
2013-05-19 00:26:00,78.6,65.0,29.64,South,169,5.0,20.0,63,0.00,,---,0.00,VWS V14.01,2013-05-19 05:26:00,
2013-05-19 00:29:00,78.5,65.3,29.64,SSW,192,8.0,20.0,64,0.00,,---,0.00,VWS V14.01,2013-05-19 05:29:00,
2013-05-19 00:30:00,78.5,65.3,29.64,SSE,165,6.0,20.0,64,0.00,,---,0.00,VWS V14.01,2013-05-19 05:30:00,
2013-05-19 00:32:00,78.4,65.2,29.64,South,180,11.0,14.0,64,0.00,,---,0.00,VWS V14.01,2013-05-19 05:32:00,
2013-05-19 00:35:00,78.3,65.1,29.65,SSW,206,10.0,14.0,64,0.00,,---,0.00,VWS V14.01,2013-05-19 05:35:00,
2013-05-19 00:38:00,78.3,65.1,29.65,South,169,10.0,15.0,64,0.00,,---,0.00,VWS V14.01,2013-05-19 05:38:00,
2013-05-19 00:41:00,78.3,65.1,29.65,South,172,7.0,15.0,64,0.00,,---,0.00,VWS V14.01,2013-05-19 05:41:00,
2013-05-19 00:44:00,78.1,64.9,29.65,SSE,162,7.0,15.0,64,0.00,,---,0.00,VWS V14.01,2013-05-19 05:44:00,
2013-05-19 00:47:00,77.9,65.2,29.65,SSW,202,7.0,15.0,65,0.00,,---,0.00,VWS V14.01,2013-05-19 05:47:00,
2013-05-19 00:50:00,77.8,65.1,29.65,SSE,155,6.0,15.0,65,0.00,,---,0.00,VWS V14.01,2013-05-19 05:50:00,
2013-05-19 00:53:00,77.7,65.0,29.65,SSW,192,8.0,15.0,65,0.00,,---,0.00,VWS V14.01,2013-05-19 05:53:00,
2013-05-19 00:56:00,77.7,65.0,29.65,South,178,7.0,15.0,65,0.00,,---,0.00,VWS V14.01,2013-05-19 05:56:00,
2013-05-19 00:59:00,77.6,64.9,29.65,South,169,8.0,15.0,65,0.00,,---,0.00,VWS V14.01,2013-05-19 05:59:00,
2013-05-19 01:00:00,77.6,64.9,29.65,South,181,7.0,15.0,65,0.00,,---,0.00,VWS V14.01,2013-05-19 06:00:00,
2013-05-19 01:02:00,77.5,65.3,29.65,SSE,163,11.0,12.0,66,0.00,,---,0.00,VWS V14.01,2013-05-19 06:02:00,
2013-05-19 01:05:00,77.3,65.1,29.65,South,182,6.0,12.0,66,0.00,,---,0.00,VWS V14.01,2013-05-19 06:05:00,
2013-05-19 01:08:00,77.2,65.0,29.64,SSE,151,7.0,12.0,66,0.00,,---,0.00,VWS V14.01,2013-05-19 06:08:00,
2013-05-19 01:11:00,77.2,65.0,29.64,SSW,198,5.0,12.0,66,0.00,,---,0.00,VWS V14.01,2013-05-19 06:11:00,
2013-05-19 01:14:00,77.1,64.9,29.64,South,178,5.0,13.0,66,0.00,,---,0.00,VWS V14.01,2013-05-19 06:14:00,
2013-05-19 01:17:00,77.1,64.9,29.64,South,177,5.0,13.0,66,0.00,,---,0.00,VWS V14.01,2013-05-19 06:17:00,
2013-05-19 01:20:00,77.0,65.2,29.64,South,181,8.0,13.0,67,0.00,,---,0.00,VWS V14.01,2013-05-19 06:20:00,
2013-05-19 01:23:00,76.9,65.1,29.64,South,189,8.0,13.0,67,0.00,,---,0.00,VWS V14.01,2013-05-19 06:23:00,
2013-05-19 01:26:00,76.8,65.0,29.64,SSE,162,7.0,13.0,67,0.00,,---,0.00,VWS V14.01,2013-05-19 06:26:00,
2013-05-19 01:29:00,76.7,64.9,29.64,South,182,6.0,13.0,67,0.00,,---,0.00,VWS V14.01,2013-05-19 06:29:00,
2013-05-19 01:30:00,76.7,64.9,29.64,South,180,7.0,13.0,67,0.00,,---,0.00,VWS V14.01,2013-05-19 06:30:00,
2013-05-19 01:32:00,76.7,64.9,29.64,SSE,167,7.0,15.0,67,0.00,,---,0.00,VWS V14.01,2013-05-19 06:32:00,
2013-05-19 01:35:00,76.7,64.9,29.64,South,184,4.0,15.0,67,0.00,,---,0.00,VWS V14.01,2013-05-19 06:35:00,
2013-05-19 01:38:00,76.6,64.8,29.64,SSW,197,5.0,15.0,67,0.00,,---,0.00,VWS V14.01,2013-05-19 06:38:00,
2013-05-19 01:41:00,76.5,65.2,29.64,SSW,198,6.0,15.0,68,0.00,,---,0.00,VWS V14.01,2013-05-19 06:41:00,
2013-05-19 01:44:00,76.5,65.2,29.64,South,180,6.0,15.0,68,0.00,,---,0.00,VWS V14.01,2013-05-19 06:44:00,
2013-05-19 01:47:00,76.4,65.1,29.64,SSW,198,5.0,15.0,68,0.00,,---,0.00,VWS V14.01,2013-05-19 06:47:00,
2013-05-19 01:50:00,76.4,65.1,29.64,South,175,9.0,15.0,68,0.00,,---,0.00,VWS V14.01,2013-05-19 06:50:00,
2013-05-19 01:54:00,76.3,65.0,29.64,SSW,192,8.0,15.0,68,0.00,,---,0.00,VWS V14.01,2013-05-19 06:54:00,
2013-05-19 01:57:00,76.2,64.9,29.65,South,177,7.0,15.0,68,0.00,,---,0.00,VWS V14.01,2013-05-19 06:57:00,
2013-05-19 02:00:00,76.2,65.3,29.65,South,188,7.0,15.0,69,0.00,,---,0.00,VWS V14.01,2013-05-19 07:00:00,
2013-05-19 02:03:00,76.0,65.1,29.64,South,171,5.0,9.0,69,0.00,,---,0.00,VWS V14.01,2013-05-19 07:03:00,
2013-05-19 02:06:00,75.9,65.0,29.64,SSW,195,4.0,12.0,69,0.00,,---,0.00,VWS V14.01,2013-05-19 07:06:00,
2013-05-19 02:09:00,75.8,64.9,29.64,South,175,4.0,12.0,69,0.00,,---,0.00,VWS V14.01,2013-05-19 07:09:00,
2013-05-19 02:12:00,75.8,65.3,29.64,South,182,9.0,12.0,70,0.00,,---,0.00,VWS V14.01,2013-05-19 07:12:00,
2013-05-19 02:15:00,75.7,65.2,29.64,SSW,194,3.0,12.0,70,0.00,,---,0.00,VWS V14.01,2013-05-19 07:15:00,
2013-05-19 02:21:00,75.7,65.2,29.64,South,188,5.0,12.0,70,0.00,,---,0.00,VWS V14.01,2013-05-19 07:21:00,
2013-05-19 02:57:00,75.2,64.8,29.64,SSE,150,5.0,15.0,70,0.00,,---,0.00,VWS V14.01,2013-05-19 07:57:00,
2013-05-19 03:06:00,75.0,64.6,29.63,SSE,157,4.0,10.0,70,0.00,,---,0.00,VWS V14.01,2013-05-19 08:06:00,
2013-05-19 03:09:00,74.9,64.5,29.63,SSE,148,3.0,10.0,70,0.00,,---,0.00,VWS V14.01,2013-05-19 08:09:00,
2013-05-19 03:16:00,75.7,65.2,29.64,South,178,7.0,12.0,70,0.00,,---,0.00,VWS V14.01,2013-05-19 08:16:00,
2013-05-19 03:22:00,75.7,65.2,29.64,SSW,200,6.0,12.0,70,0.00,,---,0.00,VWS V14.01,2013-05-19 08:22:00,
2013-05-19 03:25:00,75.7,65.2,29.64,South,187,8.0,12.0,70,0.00,,---,0.00,VWS V14.01,2013-05-19 08:25:00,
2013-05-19 03:28:00,75.7,65.2,29.64,SE,139,9.0,12.0,70,0.00,,---,0.00,VWS V14.01,2013-05-19 08:28:00,
2013-05-19 03:34:00,75.6,65.1,29.63,SSE,165,6.0,13.0,70,0.00,,---,0.00,VWS V14.01,2013-05-19 08:34:00,
2013-05-19 03:39:00,73.8,64.2,29.65,South,175,2.0,7.0,72,0.00,,---,0.00,VWS V14.01,2013-05-19 08:39:00,
2013-05-19 03:41:00,75.6,65.1,29.64,South,178,6.0,15.0,70,0.00,,---,0.00,VWS V14.01,2013-05-19 08:41:00,
2013-05-19 03:44:00,75.6,65.1,29.64,SSE,154,5.0,15.0,70,0.00,,---,0.00,VWS V14.01,2013-05-19 08:44:00,
2013-05-19 03:45:00,73.8,64.2,29.64,South,173,3.0,8.0,72,0.00,,---,0.00,VWS V14.01,2013-05-19 08:45:00,
2013-05-19 03:47:00,75.4,64.9,29.64,South,171,4.0,15.0,70,0.00,,---,0.00,VWS V14.01,2013-05-19 08:47:00,
2013-05-19 03:50:00,75.3,64.8,29.64,South,181,5.0,15.0,70,0.00,,---,0.00,VWS V14.01,2013-05-19 08:50:00,
2013-05-19 03:53:00,75.2,64.8,29.64,SSE,162,4.0,15.0,70,0.00,,---,0.00,VWS V14.01,2013-05-19 08:53:00,
2013-05-19 03:58:00,75.2,64.8,29.64,SSE,159,7.0,15.0,70,0.00,,---,0.00,VWS V14.01,2013-05-19 08:58:00,
2013-05-19 03:59:00,75.2,64.8,29.64,South,169,8.0,8.0,70,0.00,,---,0.00,VWS V14.01,2013-05-19 08:59:00,
2013-05-19 04:01:00,73.4,64.2,29.64,SSE,165,4.0,5.0,73,0.00,,---,0.00,VWS V14.01,2013-05-19 09:01:00,
2013-05-19 04:02:00,75.1,64.7,29.64,SSE,155,5.0,10.0,70,0.00,,---,0.00,VWS V14.01,2013-05-19 09:02:00,
2013-05-19 04:07:00,73.3,64.1,29.64,South,171,6.0,10.0,73,0.00,,---,0.00,VWS V14.01,2013-05-19 09:07:00,
2013-05-19 04:11:00,74.9,64.5,29.64,SSE,149,5.0,10.0,70,0.00,,---,0.00,VWS V14.01,2013-05-19 09:11:00,
2013-05-19 04:14:00,74.8,64.4,29.64,SSW,205,8.0,10.0,70,0.00,,---,0.00,VWS V14.01,2013-05-19 09:14:00,
2013-05-19 04:20:00,74.6,64.6,29.64,South,171,4.0,10.0,71,0.00,,---,0.00,VWS V14.01,2013-05-19 09:20:00,
2013-05-19 04:23:00,74.5,64.5,29.64,SSE,165,7.0,10.0,71,0.00,,---,0.00,VWS V14.01,2013-05-19 09:23:00,
2013-05-19 04:26:00,74.4,64.4,29.64,South,178,3.0,10.0,71,0.00,,---,0.00,VWS V14.01,2013-05-19 09:26:00,
2013-05-19 04:28:00,74.3,64.3,29.64,South,175,2.0,10.0,71,0.00,,---,0.00,VWS V14.01,2013-05-19 09:28:00,
2013-05-19 04:29:00,74.2,64.2,29.64,South,178,1.0,5.0,71,0.00,,---,0.00,VWS V14.01,2013-05-19 09:29:00,
2013-05-19 04:32:00,74.0,64.0,29.64,SSE,164,3.0,5.0,71,0.00,,---,0.00,VWS V14.01,2013-05-19 09:32:00,
2013-05-19 04:41:00,73.8,64.2,29.64,SSE,159,5.0,8.0,72,0.00,,---,0.00,VWS V14.01,2013-05-19 09:41:00,
2013-05-19 04:47:00,73.7,64.1,29.64,SSE,163,5.0,8.0,72,0.00,,---,0.00,VWS V14.01,2013-05-19 09:47:00,
2013-05-19 04:50:00,73.7,64.1,29.64,SSE,161,5.0,8.0,72,0.00,,---,0.00,VWS V14.01,2013-05-19 09:50:00,
2013-05-19 04:53:00,73.6,64.0,29.64,South,178,6.0,8.0,72,0.00,,---,0.00,VWS V14.01,2013-05-19 09:53:00,
2013-05-19 04:58:00,73.4,64.2,29.64,South,170,4.0,8.0,73,0.00,,---,0.00,VWS V14.01,2013-05-19 09:58:00,
2013-05-19 05:02:00,73.3,64.1,29.64,South,174,7.0,10.0,73,0.00,,---,0.00,VWS V14.01,2013-05-19 10:02:00,
2013-05-19 05:08:00,73.4,64.2,29.64,SSE,164,4.0,10.0,73,0.00,,---,0.00,VWS V14.01,2013-05-19 10:08:00,
2013-05-19 05:11:00,73.4,64.2,29.64,South,175,8.0,10.0,73,0.00,,---,0.00,VWS V14.01,2013-05-19 10:11:00,
2013-05-19 05:14:00,73.4,64.2,29.64,South,183,5.0,10.0,73,0.00,,---,0.00,VWS V14.01,2013-05-19 10:14:00,
2013-05-19 05:17:00,73.4,64.2,29.64,South,174,6.0,10.0,73,0.00,,---,0.00,VWS V14.01,2013-05-19 10:17:00,
2013-05-19 05:23:00,73.5,63.9,29.64,South,171,7.0,11.0,72,0.00,,---,0.00,VWS V14.01,2013-05-19 10:23:00,
2013-05-19 05:26:00,73.4,64.2,29.63,South,176,7.0,11.0,73,0.00,,---,0.00,VWS V14.01,2013-05-19 10:26:00,
2013-05-19 05:28:00,73.4,64.2,29.63,South,171,4.0,11.0,73,0.00,,---,0.00,VWS V14.01,2013-05-19 10:28:00,
2013-05-19 05:29:00,73.4,64.2,29.63,South,188,10.0,10.0,73,0.00,,---,0.00,VWS V14.01,2013-05-19 10:29:00,
2013-05-19 05:35:00,73.4,63.8,29.63,South,190,5.0,11.0,72,0.00,,---,0.00,VWS V14.01,2013-05-19 10:35:00,
2013-05-19 05:42:00,73.3,64.1,29.63,SSE,161,4.0,11.0,73,0.00,,---,0.00,VWS V14.01,2013-05-19 10:42:00,
2013-05-19 05:45:00,73.3,64.1,29.63,South,186,3.0,11.0,73,0.00,,---,0.00,VWS V14.01,2013-05-19 10:45:00,
2013-05-19 05:48:00,73.3,64.1,29.63,South,190,9.0,11.0,73,0.00,,---,0.00,VWS V14.01,2013-05-19 10:48:00,
2013-05-19 05:51:00,73.3,64.1,29.63,South,180,4.0,11.0,73,0.00,,---,0.00,VWS V14.01,2013-05-19 10:51:00,
2013-05-19 05:54:00,73.2,64.0,29.63,SSW,209,5.0,11.0,73,0.00,,---,0.00,VWS V14.01,2013-05-19 10:54:00,
2013-05-19 05:57:00,73.2,64.0,29.63,South,169,9.0,13.0,73,0.00,,---,0.00,VWS V14.01,2013-05-19 10:57:00,
2013-05-19 05:58:00,73.3,64.1,29.63,South,175,5.0,13.0,73,0.00,,---,0.00,VWS V14.01,2013-05-19 10:58:00,
2013-05-19 06:03:00,73.3,64.1,29.63,South,179,5.0,9.0,73,0.00,,---,0.00,VWS V14.01,2013-05-19 11:03:00,
2013-05-19 06:06:00,73.2,64.0,29.63,South,190,7.0,15.0,73,0.00,,---,0.00,VWS V14.01,2013-05-19 11:06:00,
2013-05-19 06:09:00,73.3,64.1,29.64,South,177,4.0,15.0,73,0.00,,---,0.00,VWS V14.01,2013-05-19 11:09:00,
2013-05-19 06:12:00,73.2,64.0,29.64,SSW,196,5.0,15.0,73,0.00,,---,0.00,VWS V14.01,2013-05-19 11:12:00,
2013-05-19 06:15:00,73.1,63.9,29.64,SSW,202,4.0,15.0,73,0.00,,---,0.00,VWS V14.01,2013-05-19 11:15:00,
2013-05-19 06:18:00,73.2,64.0,29.64,SSW,205,13.0,15.0,73,0.00,,---,0.00,VWS V14.01,2013-05-19 11:18:00,
2013-05-19 06:21:00,73.3,64.1,29.64,SSW,212,7.0,15.0,73,0.00,,---,0.00,VWS V14.01,2013-05-19 11:21:00,
2013-05-19 06:27:00,73.3,64.1,29.64,South,190,3.0,15.0,73,0.00,,---,0.00,VWS V14.01,2013-05-19 11:27:00,
2013-05-19 06:33:00,73.1,63.9,29.64,SSW,201,9.0,12.0,73,0.00,,---,0.00,VWS V14.01,2013-05-19 11:33:00,
2013-05-19 06:36:00,73.1,63.9,29.65,SSW,196,5.0,12.0,73,0.00,,---,0.00,VWS V14.01,2013-05-19 11:36:00,
2013-05-19 06:39:00,72.9,63.8,29.65,SSW,210,9.0,12.0,73,0.00,,---,0.00,VWS V14.01,2013-05-19 11:39:00,
2013-05-19 06:42:00,72.9,64.1,29.65,SSW,198,8.0,12.0,74,0.00,,---,0.00,VWS V14.01,2013-05-19 11:42:00,
2013-05-19 06:45:00,72.9,64.1,29.65,SSW,200,6.0,12.0,74,0.00,,---,0.00,VWS V14.01,2013-05-19 11:45:00,
2013-05-19 06:48:00,72.9,64.1,29.65,South,190,4.0,12.0,74,0.00,,---,0.00,VWS V14.01,2013-05-19 11:48:00,
2013-05-19 06:51:00,72.8,64.0,29.65,South,186,6.0,12.0,74,0.00,,---,0.00,VWS V14.01,2013-05-19 11:51:00,
2013-05-19 06:54:00,72.7,63.9,29.65,South,186,6.0,12.0,74,0.00,,---,0.00,VWS V14.01,2013-05-19 11:54:00,
2013-05-19 06:57:00,72.6,63.8,29.65,SW,218,7.0,12.0,74,0.00,,---,0.00,VWS V14.01,2013-05-19 11:57:00,
2013-05-19 06:58:00,72.6,63.8,29.65,South,177,4.0,12.0,74,0.00,,---,0.00,VWS V14.01,2013-05-19 11:58:00,
2013-05-19 07:03:00,72.6,64.2,29.65,SSW,194,6.0,9.0,75,0.00,,---,0.00,VWS V14.01,2013-05-19 12:03:00,
2013-05-19 07:06:00,72.7,63.9,29.65,SSE,167,8.0,10.0,74,0.00,,---,0.00,VWS V14.01,2013-05-19 12:06:00,
2013-05-19 07:09:00,72.8,64.0,29.65,South,183,5.0,10.0,74,0.00,,---,0.00,VWS V14.01,2013-05-19 12:09:00,
2013-05-19 07:12:00,72.8,64.0,29.65,South,177,5.0,10.0,74,0.00,,---,0.00,VWS V14.01,2013-05-19 12:12:00,
2013-05-19 07:15:00,72.9,64.1,29.65,SSE,167,5.0,10.0,74,0.00,,---,0.00,VWS V14.01,2013-05-19 12:15:00,
2013-05-19 07:21:00,73.1,64.3,29.66,SSW,200,7.0,10.0,74,0.00,,---,0.00,VWS V14.01,2013-05-19 12:21:00,
2013-05-19 07:24:00,73.2,64.4,29.66,SSE,165,6.0,10.0,74,0.00,,---,0.00,VWS V14.01,2013-05-19 12:24:00,
2013-05-19 07:27:00,73.3,64.5,29.65,South,190,4.0,10.0,74,0.00,,---,0.00,VWS V14.01,2013-05-19 12:27:00,
2013-05-19 07:28:00,73.3,64.5,29.65,South,188,3.0,10.0,74,0.00,,---,0.00,VWS V14.01,2013-05-19 12:28:00,
2013-05-19 07:30:00,73.4,64.6,29.65,South,183,7.0,9.0,74,0.00,,---,0.00,VWS V14.01,2013-05-19 12:30:00,
2013-05-19 07:33:00,73.5,64.3,29.65,SSW,198,9.0,11.0,73,0.00,,---,0.00,VWS V14.01,2013-05-19 12:33:00,
2013-05-19 07:36:00,73.7,64.5,29.65,South,181,7.0,13.0,73,0.00,,---,0.00,VWS V14.01,2013-05-19 12:36:00,
2013-05-19 07:39:00,73.9,64.7,29.65,SSW,192,7.0,13.0,73,0.00,,---,0.00,VWS V14.01,2013-05-19 12:39:00,
2013-05-19 07:45:00,74.2,64.6,29.65,South,184,5.0,13.0,72,0.00,,---,0.00,VWS V14.01,2013-05-19 12:45:00,
2013-05-19 07:48:00,74.4,64.8,29.65,SSW,196,8.0,13.0,72,0.00,,---,0.00,VWS V14.01,2013-05-19 12:48:00,
2013-05-19 07:51:00,74.5,64.9,29.65,South,178,7.0,13.0,72,0.00,,---,0.00,VWS V14.01,2013-05-19 12:51:00,
2013-05-19 07:54:00,74.7,64.7,29.65,South,175,7.0,14.0,71,0.00,,---,0.00,VWS V14.01,2013-05-19 12:54:00,
2013-05-19 07:57:00,74.8,64.8,29.65,South,175,5.0,14.0,71,0.00,,---,0.00,VWS V14.01,2013-05-19 12:57:00,
2013-05-19 08:00:00,75.0,65.0,29.65,South,191,10.0,13.0,71,0.00,,---,0.00,VWS V14.01,2013-05-19 13:00:00,
2013-05-19 08:04:00,75.2,65.2,29.65,South,180,12.0,14.0,71,0.00,,---,0.00,VWS V14.01,2013-05-19 13:04:00,
2013-05-19 08:07:00,75.3,64.8,29.65,South,173,7.0,18.0,70,0.00,,---,0.00,VWS V14.01,2013-05-19 13:07:00,
2013-05-19 08:10:00,75.4,64.9,29.65,South,191,11.0,18.0,70,0.00,,---,0.00,VWS V14.01,2013-05-19 13:10:00,
2013-05-19 08:16:00,75.7,64.8,29.64,South,178,18.0,18.0,69,0.00,,---,0.00,VWS V14.01,2013-05-19 13:16:00,
2013-05-19 08:19:00,75.9,65.0,29.64,SSW,205,9.0,18.0,69,0.00,,---,0.00,VWS V14.01,2013-05-19 13:19:00,
2013-05-19 08:25:00,76.2,65.3,29.64,South,180,11.0,18.0,69,0.00,,---,0.00,VWS V14.01,2013-05-19 13:25:00,
2013-05-19 08:28:00,76.3,65.4,29.63,South,181,10.0,18.0,69,0.00,,---,0.00,VWS V14.01,2013-05-19 13:28:00,
2013-05-19 08:31:00,76.6,65.3,29.63,SSW,207,12.0,18.0,68,0.00,,---,0.00,VWS V14.01,2013-05-19 13:31:00,
2013-05-19 08:34:00,76.8,65.4,29.63,South,169,8.0,18.0,68,0.00,,---,0.00,VWS V14.01,2013-05-19 13:34:00,
2013-05-19 08:37:00,77.0,65.2,29.63,South,177,19.0,22.0,67,0.00,,---,0.00,VWS V14.01,2013-05-19 13:37:00,
2013-05-19 08:40:00,77.1,65.3,29.63,SSW,196,7.0,23.0,67,0.00,,---,0.00,VWS V14.01,2013-05-19 13:40:00,
2013-05-19 08:46:00,77.6,65.3,29.62,South,176,14.0,23.0,66,0.00,,---,0.00,VWS V14.01,2013-05-19 13:46:00,
2013-05-19 08:49:00,77.8,65.5,29.62,South,181,10.0,23.0,66,0.00,,---,0.00,VWS V14.01,2013-05-19 13:49:00,
2013-05-19 08:52:00,78.1,65.8,29.62,South,175,10.0,23.0,66,0.00,,---,0.00,VWS V14.01,2013-05-19 13:52:00,
2013-05-19 08:55:00,78.4,65.7,29.63,SSE,163,12.0,23.0,65,0.00,,---,0.00,VWS V14.01,2013-05-19 13:55:00,
2013-05-19 08:58:00,78.7,65.5,29.63,South,176,12.0,23.0,64,0.00,,---,0.00,VWS V14.01,2013-05-19 13:58:00,
2013-05-19 09:01:00,78.9,65.7,29.63,SSW,194,11.0,16.0,64,0.00,,---,0.00,VWS V14.01,2013-05-19 14:01:00,
2013-05-19 09:07:00,79.2,66.0,29.64,SSW,193,12.0,19.0,64,0.00,,---,0.00,VWS V14.01,2013-05-19 14:07:00,
2013-05-19 09:10:00,79.5,66.3,29.64,SSW,192,14.0,20.0,64,0.00,,---,0.00,VWS V14.01,2013-05-19 14:10:00,
2013-05-19 09:16:00,79.7,66.0,29.64,SW,221,9.0,22.0,63,0.00,,---,0.00,VWS V14.01,2013-05-19 14:16:00,
2013-05-19 09:19:00,79.6,65.9,29.64,SW,216,18.0,22.0,63,0.00,,---,0.00,VWS V14.01,2013-05-19 14:19:00,
2013-05-19 09:22:00,79.8,66.1,29.64,South,189,10.0,23.0,63,0.00,,---,0.00,VWS V14.01,2013-05-19 14:22:00,
2013-05-19 09:25:00,79.8,66.1,29.64,South,178,12.0,23.0,63,0.00,,---,0.00,VWS V14.01,2013-05-19 14:25:00,
2013-05-19 09:28:00,80.1,66.4,29.64,SSW,198,9.0,23.0,63,0.00,,---,0.00,VWS V14.01,2013-05-19 14:28:00,
2013-05-19 09:34:00,80.3,66.1,29.64,SSW,194,17.0,18.0,62,0.00,,---,0.00,VWS V14.01,2013-05-19 14:34:00,
2013-05-19 09:37:00,80.4,66.7,29.64,SSE,153,16.0,18.0,63,0.00,,---,0.00,VWS V14.01,2013-05-19 14:37:00,
2013-05-19 09:40:00,80.4,66.2,29.65,SW,214,11.0,19.0,62,0.00,,---,0.00,VWS V14.01,2013-05-19 14:40:00,
2013-05-19 09:43:00,80.3,66.6,29.65,South,180,13.0,19.0,63,0.00,,---,0.00,VWS V14.01,2013-05-19 14:43:00,
2013-05-19 09:46:00,80.8,67.0,29.65,SSW,198,12.0,19.0,63,0.00,,---,0.00,VWS V14.01,2013-05-19 14:46:00,
2013-05-19 09:49:00,81.3,67.1,29.65,SSW,209,8.0,19.0,62,0.00,,---,0.00,VWS V14.01,2013-05-19 14:49:00,
2013-05-19 09:52:00,81.6,66.9,29.65,SW,218,12.0,19.0,61,0.00,,---,0.00,VWS V14.01,2013-05-19 14:52:00,
2013-05-19 09:55:00,81.3,66.6,29.65,SSW,192,14.0,19.0,61,0.00,,---,0.00,VWS V14.01,2013-05-19 14:55:00,
2013-05-19 09:58:00,81.4,66.7,29.65,South,175,10.0,19.0,61,0.00,,---,0.00,VWS V14.01,2013-05-19 14:58:00,
2013-05-19 10:01:00,81.6,66.9,29.65,SSW,202,16.0,18.0,61,0.00,,---,0.00,VWS V14.01,2013-05-19 15:01:00,
2013-05-19 10:04:00,81.5,66.8,29.64,SSW,211,9.0,20.0,61,0.00,,---,0.00,VWS V14.01,2013-05-19 15:04:00,
2013-05-19 10:07:00,81.9,66.7,29.64,SSW,198,9.0,21.0,60,0.00,,---,0.00,VWS V14.01,2013-05-19 15:07:00,
2013-05-19 10:10:00,82.5,67.2,29.64,SSW,205,10.0,21.0,60,0.00,,---,0.00,VWS V14.01,2013-05-19 15:10:00,
2013-05-19 10:13:00,82.6,66.8,29.64,South,173,9.0,21.0,59,0.00,,---,0.00,VWS V14.01,2013-05-19 15:13:00,
2013-05-19 10:19:00,83.1,67.3,29.64,South,175,10.0,21.0,59,0.00,,---,0.00,VWS V14.01,2013-05-19 15:19:00,
2013-05-19 10:23:00,83.5,67.2,29.64,SSW,203,10.0,21.0,58,0.00,,---,0.00,VWS V14.01,2013-05-19 15:23:00,
2013-05-19 10:26:00,83.8,67.0,29.64,South,173,16.0,21.0,57,0.00,,---,0.00,VWS V14.01,2013-05-19 15:26:00,
2013-05-19 10:28:00,84.0,67.7,29.64,SSW,198,12.0,21.0,58,0.00,,---,0.00,VWS V14.01,2013-05-19 15:28:00,
2013-05-19 10:32:00,84.3,67.4,29.64,South,184,13.0,17.0,57,0.00,,---,0.00,VWS V14.01,2013-05-19 15:32:00,
2013-05-19 10:35:00,84.4,67.5,29.64,South,178,13.0,17.0,57,0.00,,---,0.00,VWS V14.01,2013-05-19 15:35:00,
2013-05-19 10:38:00,85.0,67.6,29.64,SSW,200,9.0,19.0,56,0.00,,---,0.00,VWS V14.01,2013-05-19 15:38:00,
2013-05-19 10:41:00,85.2,67.8,29.64,SSW,205,7.0,19.0,56,0.00,,---,0.00,VWS V14.01,2013-05-19 15:41:00,
2013-05-19 10:44:00,85.4,67.9,29.64,SW,221,12.0,19.0,56,0.00,,---,0.00,VWS V14.01,2013-05-19 15:44:00,
2013-05-19 10:47:00,85.5,68.0,29.64,SSW,194,12.0,19.0,56,0.00,,---,0.00,VWS V14.01,2013-05-19 15:47:00,
2013-05-19 10:50:00,85.5,67.5,29.64,SSW,192,7.0,19.0,55,0.00,,---,0.00,VWS V14.01,2013-05-19 15:50:00,
2013-05-19 10:53:00,86.0,68.0,29.63,SSW,196,12.0,19.0,55,0.00,,---,0.00,VWS V14.01,2013-05-19 15:53:00,
2013-05-19 10:56:00,85.9,67.9,29.63,South,190,8.0,19.0,55,0.00,,---,0.00,VWS V14.01,2013-05-19 15:56:00,
2013-05-19 10:59:00,86.0,68.0,29.64,SSW,192,14.0,15.0,55,0.00,,---,0.00,VWS V14.01,2013-05-19 15:59:00,
2013-05-19 11:02:00,86.1,68.1,29.63,South,183,16.0,17.0,55,0.00,,---,0.00,VWS V14.01,2013-05-19 16:02:00,
2013-05-19 11:05:00,86.5,68.4,29.63,SSW,206,14.0,18.0,55,0.00,,---,0.00,VWS V14.01,2013-05-19 16:05:00,
2013-05-19 11:08:00,86.4,67.8,29.63,South,182,13.0,19.0,54,0.00,,---,0.00,VWS V14.01,2013-05-19 16:08:00,
2013-05-19 11:11:00,86.5,67.9,29.63,South,180,13.0,19.0,54,0.00,,---,0.00,VWS V14.01,2013-05-19 16:11:00,
2013-05-19 11:14:00,86.7,68.6,29.63,South,182,12.0,19.0,55,0.00,,---,0.00,VWS V14.01,2013-05-19 16:14:00,
2013-05-19 11:17:00,86.6,68.0,29.63,SSW,192,10.0,19.0,54,0.00,,---,0.00,VWS V14.01,2013-05-19 16:17:00,
2013-05-19 11:20:00,87.1,68.4,29.63,SSW,200,8.0,19.0,54,0.00,,---,0.00,VWS V14.01,2013-05-19 16:20:00,
2013-05-19 11:26:00,87.4,68.2,29.63,SSW,198,8.0,21.0,53,0.00,,---,0.00,VWS V14.01,2013-05-19 16:26:00,
2013-05-19 11:32:00,87.3,68.1,29.64,SSW,203,10.0,18.0,53,0.00,,---,0.00,VWS V14.01,2013-05-19 16:32:00,
2013-05-19 11:35:00,86.7,68.6,29.64,SSW,195,16.0,18.0,55,0.00,,---,0.00,VWS V14.01,2013-05-19 16:35:00,
2013-05-19 11:41:00,87.3,68.6,29.64,SSW,200,12.0,18.0,54,0.00,,---,0.00,VWS V14.01,2013-05-19 16:41:00,
2013-05-19 11:44:00,87.7,67.9,29.64,SSW,194,13.0,18.0,52,0.00,,---,0.00,VWS V14.01,2013-05-19 16:44:00,
2013-05-19 11:47:00,88.1,68.8,29.64,SSW,211,13.0,18.0,53,0.00,,---,0.00,VWS V14.01,2013-05-19 16:47:00,
2013-05-19 11:50:00,87.8,68.0,29.64,SSW,196,11.0,19.0,52,0.00,,---,0.00,VWS V14.01,2013-05-19 16:50:00,
2013-05-19 11:53:00,87.6,68.4,29.64,SSW,203,14.0,20.0,53,0.00,,---,0.00,VWS V14.01,2013-05-19 16:53:00,
2013-05-19 11:56:00,87.3,68.1,29.64,SSW,201,9.0,21.0,53,0.00,,---,0.00,VWS V14.01,2013-05-19 16:56:00,
2013-05-19 11:58:00,87.6,69.4,29.63,SSW,209,8.0,21.0,55,0.00,,---,0.00,VWS V14.01,2013-05-19 16:58:00,
2013-05-19 12:02:00,88.2,68.4,29.63,South,190,19.0,19.0,52,0.00,,---,0.00,VWS V14.01,2013-05-19 17:02:00,
2013-05-19 12:05:00,88.6,68.7,29.64,SSW,194,8.0,22.0,52,0.00,,---,0.00,VWS V14.01,2013-05-19 17:05:00,
2013-05-19 12:08:00,88.6,68.2,29.64,SSW,202,8.0,22.0,51,0.00,,---,0.00,VWS V14.01,2013-05-19 17:08:00,
2013-05-19 12:14:00,88.9,68.4,29.63,South,187,11.0,22.0,51,0.00,,---,0.00,VWS V14.01,2013-05-19 17:14:00,
2013-05-19 12:17:00,88.9,69.0,29.63,SSW,196,8.0,22.0,52,0.00,,---,0.00,VWS V14.01,2013-05-19 17:17:00,
2013-05-19 12:20:00,89.7,69.2,29.63,SSW,213,9.0,22.0,51,0.00,,---,0.00,VWS V14.01,2013-05-19 17:20:00,
2013-05-19 12:23:00,89.3,68.8,29.63,SW,221,10.0,22.0,51,0.00,,---,0.00,VWS V14.01,2013-05-19 17:23:00,
2013-05-19 12:26:00,89.3,69.4,29.63,South,190,10.0,22.0,52,0.00,,---,0.00,VWS V14.01,2013-05-19 17:26:00,
2013-05-19 12:28:00,89.5,68.4,29.63,SSE,167,8.0,22.0,50,0.00,,---,0.00,VWS V14.01,2013-05-19 17:28:00,
2013-05-19 12:32:00,89.8,68.7,29.63,SSE,156,9.0,18.0,50,0.00,,---,0.00,VWS V14.01,2013-05-19 17:32:00,
2013-05-19 12:39:00,90.0,68.3,29.63,SW,214,12.0,19.0,49,0.00,,---,0.00,VWS V14.01,2013-05-19 17:39:00,
2013-05-19 12:42:00,89.9,68.8,29.63,SSW,198,14.0,19.0,50,0.00,,---,0.00,VWS V14.01,2013-05-19 17:42:00,
2013-05-19 12:48:00,90.2,69.1,29.62,SSW,211,14.0,20.0,50,0.00,,---,0.00,VWS V14.01,2013-05-19 17:48:00,
2013-05-19 12:51:00,89.8,68.1,29.63,SSW,206,14.0,20.0,49,0.00,,---,0.00,VWS V14.01,2013-05-19 17:51:00,
2013-05-19 12:54:00,89.7,67.4,29.62,SSW,196,11.0,20.0,48,0.00,,---,0.00,VWS V14.01,2013-05-19 17:54:00,
2013-05-19 12:57:00,89.6,67.3,29.62,SSW,202,8.0,20.0,48,0.00,,---,0.00,VWS V14.01,2013-05-19 17:57:00,
2013-05-19 13:00:00,89.9,68.8,29.62,South,191,13.0,14.0,50,0.00,,---,0.00,VWS V14.01,2013-05-19 18:00:00,
2013-05-19 13:03:00,90.1,67.8,29.62,SSW,209,14.0,18.0,48,0.00,,---,0.00,VWS V14.01,2013-05-19 18:03:00,
2013-05-19 13:06:00,89.9,67.6,29.62,South,171,11.0,22.0,48,0.00,,---,0.00,VWS V14.01,2013-05-19 18:06:00,
2013-05-19 13:12:00,90.8,68.4,29.62,SW,224,13.0,22.0,48,0.00,,---,0.00,VWS V14.01,2013-05-19 18:12:00,
2013-05-19 13:15:00,91.1,68.7,29.61,SSE,167,12.0,22.0,48,0.00,,---,0.00,VWS V14.01,2013-05-19 18:15:00,
2013-05-19 13:18:00,91.2,68.2,29.61,South,185,12.0,22.0,47,0.00,,---,0.00,VWS V14.01,2013-05-19 18:18:00,
2013-05-19 13:21:00,91.1,68.7,29.61,SSW,200,10.0,22.0,48,0.00,,---,0.00,VWS V14.01,2013-05-19 18:21:00,
2013-05-19 13:24:00,91.2,67.6,29.61,South,171,11.0,22.0,46,0.00,,---,0.00,VWS V14.01,2013-05-19 18:24:00,
2013-05-19 13:28:00,91.3,68.3,29.61,SSW,192,9.0,22.0,47,0.00,,---,0.00,VWS V14.01,2013-05-19 18:28:00,
2013-05-19 13:30:00,91.6,68.5,29.61,SW,217,10.0,13.0,47,0.00,,---,0.00,VWS V14.01,2013-05-19 18:30:00,
2013-05-19 13:33:00,91.8,68.7,29.60,South,180,7.0,15.0,47,0.00,,---,0.00,VWS V14.01,2013-05-19 18:33:00,
2013-05-19 13:36:00,91.7,68.0,29.61,SSW,202,17.0,20.0,46,0.00,,---,0.00,VWS V14.01,2013-05-19 18:36:00,
2013-05-19 13:39:00,91.8,68.1,29.60,SSE,154,10.0,20.0,46,0.00,,---,0.00,VWS V14.01,2013-05-19 18:39:00,
2013-05-19 13:42:00,92.6,68.2,29.60,SSW,201,10.0,20.0,45,0.00,,---,0.00,VWS V14.01,2013-05-19 18:42:00,
2013-05-19 13:45:00,92.2,67.8,29.60,SW,229,13.0,20.0,45,0.00,,---,0.00,VWS V14.01,2013-05-19 18:45:00,
2013-05-19 13:51:00,92.5,68.1,29.60,South,171,13.0,20.0,45,0.00,,---,0.00,VWS V14.01,2013-05-19 18:51:00,
2013-05-19 13:54:00,92.9,67.1,29.60,SSW,202,10.0,20.0,43,0.00,,---,0.00,VWS V14.01,2013-05-19 18:54:00,
2013-05-19 13:57:00,93.4,68.2,29.60,SSW,197,7.0,20.0,44,0.00,,---,0.00,VWS V14.01,2013-05-19 18:57:00,
2013-05-19 13:58:00,93.7,68.5,29.59,SSE,149,9.0,20.0,44,0.00,,---,0.00,VWS V14.01,2013-05-19 18:58:00,
2013-05-19 14:00:00,93.9,68.0,29.59,SSE,158,11.0,15.0,43,0.00,,---,0.00,VWS V14.01,2013-05-19 19:00:00,
2013-05-19 14:06:00,94.1,66.1,29.59,SSW,212,9.0,20.0,40,0.00,,---,0.00,VWS V14.01,2013-05-19 19:06:00,
2013-05-19 14:12:00,94.2,65.5,29.59,SSW,213,5.0,20.0,39,0.00,,---,0.00,VWS V14.01,2013-05-19 19:12:00,
2013-05-19 14:15:00,94.0,64.6,29.59,SSW,202,9.0,20.0,38,0.00,,---,0.00,VWS V14.01,2013-05-19 19:15:00,
2013-05-19 14:18:00,94.3,64.1,29.59,SW,216,7.0,20.0,37,0.00,,---,0.00,VWS V14.01,2013-05-19 19:18:00,
2013-05-19 14:21:00,94.1,65.4,29.59,South,169,10.0,20.0,39,0.00,,---,0.00,VWS V14.01,2013-05-19 19:21:00,
2013-05-19 14:27:00,94.8,63.7,29.58,SW,234,7.0,20.0,36,0.00,,---,0.00,VWS V14.01,2013-05-19 19:27:00,
2013-05-19 14:28:00,94.7,64.4,29.58,SSW,197,12.0,20.0,37,0.00,,---,0.00,VWS V14.01,2013-05-19 19:28:00,
2013-05-19 14:30:00,94.9,64.6,29.58,South,190,9.0,15.0,37,0.00,,---,0.00,VWS V14.01,2013-05-19 19:30:00,
2013-05-19 14:33:00,95.0,64.7,29.58,SSW,194,8.0,16.0,37,0.00,,---,0.00,VWS V14.01,2013-05-19 19:33:00,
2013-05-19 14:36:00,95.3,64.2,29.58,SW,225,8.0,16.0,36,0.00,,---,0.00,VWS V14.01,2013-05-19 19:36:00,
2013-05-19 14:39:00,94.9,63.8,29.58,SW,232,8.0,16.0,36,0.00,,---,0.00,VWS V14.01,2013-05-19 19:39:00,
2013-05-19 14:42:00,94.7,63.6,29.58,SSW,200,7.0,16.0,36,0.00,,---,0.00,VWS V14.01,2013-05-19 19:42:00,
2013-05-19 14:45:00,95.4,64.2,29.57,SSW,209,8.0,17.0,36,0.00,,---,0.00,VWS V14.01,2013-05-19 19:45:00,
2013-05-19 14:48:00,95.8,63.8,29.57,WSW,242,9.0,17.0,35,0.00,,---,0.00,VWS V14.01,2013-05-19 19:48:00,
2013-05-19 14:51:00,96.0,63.1,29.57,SSW,198,11.0,17.0,34,0.00,,---,0.00,VWS V14.01,2013-05-19 19:51:00,
2013-05-19 14:54:00,95.7,62.9,29.58,SW,221,9.0,18.0,34,0.00,,---,0.00,VWS V14.01,2013-05-19 19:54:00,
2013-05-19 14:58:00,95.5,63.5,29.57,SW,236,7.0,18.0,35,0.00,,---,0.00,VWS V14.01,2013-05-19 19:58:00,
2013-05-19 15:01:00,95.9,63.0,29.57,SSW,203,10.0,17.0,34,0.00,,---,0.00,VWS V14.01,2013-05-19 20:01:00,
2013-05-19 15:04:00,96.7,62.9,29.57,SSW,205,9.0,17.0,33,0.00,,---,0.00,VWS V14.01,2013-05-19 20:04:00,
2013-05-19 15:07:00,96.7,62.9,29.57,SW,229,10.0,17.0,33,0.00,,---,0.00,VWS V14.01,2013-05-19 20:07:00,
2013-05-19 15:10:00,96.2,61.6,29.57,South,186,8.0,17.0,32,0.00,,---,0.00,VWS V14.01,2013-05-19 20:10:00,
2013-05-19 15:13:00,96.9,63.1,29.57,SW,222,12.0,17.0,33,0.00,,---,0.00,VWS V14.01,2013-05-19 20:13:00,
2013-05-19 15:19:00,97.6,63.7,29.56,SW,223,5.0,17.0,33,0.00,,---,0.00,VWS V14.01,2013-05-19 20:19:00,
2013-05-19 15:22:00,97.5,61.8,29.57,SSW,213,8.0,20.0,31,0.00,,---,0.00,VWS V14.01,2013-05-19 20:22:00,
2013-05-19 15:25:00,97.2,61.5,29.56,SW,227,13.0,20.0,31,0.00,,---,0.00,VWS V14.01,2013-05-19 20:25:00,
2013-05-19 15:28:00,96.7,60.2,29.56,WSW,238,9.0,20.0,30,0.00,,---,0.00,VWS V14.01,2013-05-19 20:28:00,
2013-05-19 15:34:00,97.1,62.4,29.56,SW,227,14.0,20.0,32,0.00,,---,0.00,VWS V14.01,2013-05-19 20:34:00,
2013-05-19 15:37:00,97.0,61.4,29.55,South,180,8.0,20.0,31,0.00,,---,0.00,VWS V14.01,2013-05-19 20:37:00,
2013-05-19 15:43:00,97.8,61.1,29.55,SSW,213,9.0,20.0,30,0.00,,---,0.00,VWS V14.01,2013-05-19 20:43:00,
2013-05-19 15:46:00,98.0,59.4,29.55,SW,219,5.0,20.0,28,0.00,,---,0.00,VWS V14.01,2013-05-19 20:46:00,
2013-05-19 15:52:00,98.4,59.7,29.55,SW,223,7.0,20.0,28,0.00,,---,0.00,VWS V14.01,2013-05-19 20:52:00,
2013-05-19 15:55:00,98.4,58.7,29.54,SSE,168,9.0,20.0,27,0.00,,---,0.00,VWS V14.01,2013-05-19 20:55:00,
2013-05-19 15:58:00,98.5,58.8,29.54,SW,221,7.0,20.0,27,0.00,,---,0.00,VWS V14.01,2013-05-19 20:58:00,
2013-05-19 16:01:00,98.6,58.9,29.54,SW,219,9.0,14.0,27,0.00,,---,0.00,VWS V14.01,2013-05-19 21:01:00,
2013-05-19 16:07:00,98.2,58.5,29.54,SSW,212,10.0,18.0,27,0.00,,---,0.00,VWS V14.01,2013-05-19 21:07:00,
2013-05-19 16:10:00,98.2,58.5,29.54,SSW,212,14.0,22.0,27,0.00,,---,0.00,VWS V14.01,2013-05-19 21:10:00,
2013-05-19 16:13:00,98.3,58.6,29.54,SSW,206,10.0,22.0,27,0.00,,---,0.00,VWS V14.01,2013-05-19 21:13:00,
2013-05-19 16:16:00,98.2,58.5,29.53,SSW,202,7.0,22.0,27,0.00,,---,0.00,VWS V14.01,2013-05-19 21:16:00,
2013-05-19 16:19:00,98.5,57.7,29.53,SSW,205,16.0,22.0,26,0.00,,---,0.00,VWS V14.01,2013-05-19 21:19:00,
2013-05-19 16:22:00,98.8,56.9,29.54,SSW,211,12.0,22.0,25,0.00,,---,0.00,VWS V14.01,2013-05-19 21:22:00,
2013-05-19 16:25:00,99.1,57.1,29.53,South,184,5.0,22.0,25,0.00,,---,0.00,VWS V14.01,2013-05-19 21:25:00,
2013-05-19 16:28:00,99.4,58.5,29.53,SSW,213,7.0,22.0,26,0.00,,---,0.00,VWS V14.01,2013-05-19 21:28:00,
2013-05-19 16:31:00,99.8,57.7,29.53,South,169,15.0,19.0,25,0.00,,---,0.00,VWS V14.01,2013-05-19 21:31:00,
2013-05-19 16:34:00,99.5,57.5,29.53,SSW,192,11.0,22.0,25,0.00,,---,0.00,VWS V14.01,2013-05-19 21:34:00,
2013-05-19 16:37:00,99.5,57.5,29.53,South,182,7.0,22.0,25,0.00,,---,0.00,VWS V14.01,2013-05-19 21:37:00,
2013-05-19 16:40:00,99.4,58.5,29.53,SSW,207,7.0,22.0,26,0.00,,---,0.00,VWS V14.01,2013-05-19 21:40:00,
2013-05-19 16:43:00,99.1,58.2,29.52,SW,217,12.0,24.0,26,0.00,,---,0.00,VWS V14.01,2013-05-19 21:43:00,
2013-05-19 16:46:00,99.6,58.7,29.53,SSW,198,11.0,24.0,26,0.00,,---,0.00,VWS V14.01,2013-05-19 21:46:00,
2013-05-19 16:49:00,99.7,56.5,29.52,SSW,203,8.0,24.0,24,0.00,,---,0.00,VWS V14.01,2013-05-19 21:49:00,
2013-05-19 16:52:00,99.6,56.4,29.52,South,178,8.0,24.0,24,0.00,,---,0.00,VWS V14.01,2013-05-19 21:52:00,
2013-05-19 16:55:00,99.6,56.4,29.52,SSW,196,10.0,24.0,24,0.00,,---,0.00,VWS V14.01,2013-05-19 21:55:00,
2013-05-19 16:58:00,99.5,56.3,29.52,South,189,15.0,15.0,24,0.00,,---,0.00,VWS V14.01,2013-05-19 21:58:00,
2013-05-19 17:01:00,99.6,56.4,29.51,South,184,14.0,20.0,24,0.00,,---,0.00,VWS V14.01,2013-05-19 22:01:00,
2013-05-19 17:07:00,99.2,56.1,29.52,SSW,193,9.0,20.0,24,0.00,,---,0.00,VWS V14.01,2013-05-19 22:07:00,
2013-05-19 17:10:00,99.1,56.0,29.51,South,181,13.0,20.0,24,0.00,,---,0.00,VWS V14.01,2013-05-19 22:10:00,
2013-05-19 17:14:00,99.0,57.1,29.51,SSW,205,7.0,20.0,25,0.00,,---,0.00,VWS V14.01,2013-05-19 22:14:00,
2013-05-19 17:17:00,98.8,64.7,29.51,South,189,12.0,20.0,33,0.00,,---,0.00,VWS V14.01,2013-05-19 22:17:00,
2013-05-19 17:23:00,98.7,63.8,29.51,SSW,192,8.0,20.0,32,0.00,,---,0.00,VWS V14.01,2013-05-19 22:23:00,
2013-05-19 17:26:00,98.5,66.1,29.51,SE,145,13.0,20.0,35,0.00,,---,0.00,VWS V14.01,2013-05-19 22:26:00,
2013-05-19 17:28:00,97.8,67.1,29.51,South,182,10.0,20.0,37,0.00,,---,0.00,VWS V14.01,2013-05-19 22:28:00,
2013-05-19 17:29:00,97.7,67.1,29.51,SSW,192,12.0,14.0,37,0.00,,---,0.00,VWS V14.01,2013-05-19 22:29:00,
2013-05-19 17:32:00,97.5,66.1,29.51,SSW,207,14.0,17.0,36,0.00,,---,0.00,VWS V14.01,2013-05-19 22:32:00,
2013-05-19 17:35:00,97.1,65.7,29.50,SSW,193,13.0,17.0,36,0.00,,---,0.00,VWS V14.01,2013-05-19 22:35:00,
2013-05-19 17:38:00,96.8,67.0,29.51,South,173,14.0,19.0,38,0.00,,---,0.00,VWS V14.01,2013-05-19 22:38:00,
2013-05-19 17:41:00,96.4,67.4,29.51,South,186,8.0,19.0,39,0.00,,---,0.00,VWS V14.01,2013-05-19 22:41:00,
2013-05-19 17:47:00,96.0,67.1,29.50,SSE,153,8.0,20.0,39,0.00,,---,0.00,VWS V14.01,2013-05-19 22:47:00,
2013-05-19 17:50:00,96.1,67.2,29.51,South,175,12.0,20.0,39,0.00,,---,0.00,VWS V14.01,2013-05-19 22:50:00,
2013-05-19 17:53:00,96.2,67.2,29.51,SSW,205,9.0,20.0,39,0.00,,---,0.00,VWS V14.01,2013-05-19 22:53:00,
2013-05-19 17:56:00,96.0,67.8,29.51,SSW,200,9.0,20.0,40,0.00,,---,0.00,VWS V14.01,2013-05-19 22:56:00,
2013-05-19 17:58:00,95.8,68.3,29.51,SSW,196,9.0,20.0,41,0.00,,---,0.00,VWS V14.01,2013-05-19 22:58:00,
2013-05-19 18:02:00,95.2,68.5,29.51,South,178,12.0,18.0,42,0.00,,---,0.00,VWS V14.01,2013-05-19 23:02:00,
2013-05-19 18:05:00,95.0,69.0,29.51,South,188,11.0,18.0,43,0.00,,---,0.00,VWS V14.01,2013-05-19 23:05:00,
2013-05-19 18:08:00,94.7,68.7,29.51,SSE,165,12.0,21.0,43,0.00,,---,0.00,VWS V14.01,2013-05-19 23:08:00,
2013-05-19 18:11:00,94.3,69.1,29.51,SSE,157,14.0,21.0,44,0.00,,---,0.00,VWS V14.01,2013-05-19 23:11:00,
2013-05-19 18:17:00,94.2,69.0,29.51,South,169,17.0,21.0,44,0.00,,---,0.00,VWS V14.01,2013-05-19 23:17:00,
2013-05-19 18:20:00,94.2,69.0,29.51,South,180,11.0,21.0,44,0.00,,---,0.00,VWS V14.01,2013-05-19 23:20:00,
2013-05-19 18:23:00,94.4,69.1,29.51,SSE,159,14.0,21.0,44,0.00,,---,0.00,VWS V14.01,2013-05-19 23:23:00,
2013-05-19 18:28:00,94.2,69.0,29.51,SSE,150,4.0,21.0,44,0.00,,---,0.00,VWS V14.01,2013-05-19 23:28:00,
2013-05-19 18:29:00,94.3,69.1,29.51,South,175,8.0,13.0,44,0.00,,---,0.00,VWS V14.01,2013-05-19 23:29:00,
2013-05-19 18:32:00,94.2,69.0,29.51,South,172,10.0,21.0,44,0.00,,---,0.00,VWS V14.01,2013-05-19 23:32:00,
2013-05-19 18:35:00,94.0,68.8,29.50,SSE,159,9.0,21.0,44,0.00,,---,0.00,VWS V14.01,2013-05-19 23:35:00,
2013-05-19 18:38:00,93.7,68.5,29.50,South,171,19.0,21.0,44,0.00,,---,0.00,VWS V14.01,2013-05-19 23:38:00,
2013-05-19 18:41:00,93.4,68.9,29.50,SE,138,10.0,22.0,45,0.00,,---,0.00,VWS V14.01,2013-05-19 23:41:00,
2013-05-19 18:44:00,93.2,68.7,29.50,South,174,15.0,22.0,45,0.00,,---,0.00,VWS V14.01,2013-05-19 23:44:00,
2013-05-19 18:50:00,93.0,69.2,29.50,SE,143,13.0,23.0,46,0.00,,---,0.00,VWS V14.01,2013-05-19 23:50:00,
2013-05-19 18:53:00,92.9,69.1,29.50,SSE,156,8.0,23.0,46,0.00,,---,0.00,VWS V14.01,2013-05-19 23:53:00,
2013-05-19 18:56:00,92.8,69.0,29.50,South,183,9.0,23.0,46,0.00,,---,0.00,VWS V14.01,2013-05-19 23:56:00,
2013-05-19 18:58:00,92.9,69.1,29.50,South,170,9.0,23.0,46,0.00,,---,0.00,VWS V14.01,2013-05-19 23:58:00,
2013-05-19 18:59:00,92.9,68.4,29.50,SSE,161,9.0,15.0,45,0.00,,---,0.00,VWS V14.01,2013-05-19 23:59:00,
2013-05-19 19:02:00,92.9,68.4,29.50,SSE,153,9.0,20.0,45,0.00,,---,0.00,VWS V14.01,2013-05-20 00:02:00,
2013-05-19 19:05:00,92.6,68.8,29.50,SSE,164,10.0,20.0,46,0.00,,---,0.00,VWS V14.01,2013-05-20 00:05:00,
2013-05-19 19:08:00,92.5,68.7,29.50,SSE,165,10.0,20.0,46,0.00,,---,0.00,VWS V14.01,2013-05-20 00:08:00,
2013-05-19 19:11:00,92.4,68.6,29.51,South,184,15.0,21.0,46,0.00,,---,0.00,VWS V14.01,2013-05-20 00:11:00,
2013-05-19 19:14:00,92.0,68.3,29.51,SSE,161,17.0,21.0,46,0.00,,---,0.00,VWS V14.01,2013-05-20 00:14:00,
2013-05-19 19:17:00,91.8,68.7,29.51,SSE,159,10.0,21.0,47,0.00,,---,0.00,VWS V14.01,2013-05-20 00:17:00,
2013-05-19 19:20:00,91.6,68.5,29.51,SSE,149,11.0,21.0,47,0.00,,---,0.00,VWS V14.01,2013-05-20 00:20:00,
2013-05-19 19:23:00,91.3,68.3,29.51,SE,137,14.0,21.0,47,0.00,,---,0.00,VWS V14.01,2013-05-20 00:23:00,
2013-05-19 19:28:00,91.1,68.7,29.51,South,175,12.0,22.0,48,0.00,,---,0.00,VWS V14.01,2013-05-20 00:28:00,
2013-05-19 19:33:00,91.0,68.6,29.51,South,170,9.0,19.0,48,0.00,,---,0.00,VWS V14.01,2013-05-20 00:33:00,
2013-05-19 19:39:00,90.7,68.9,29.51,SSE,164,15.0,19.0,49,0.00,,---,0.00,VWS V14.01,2013-05-20 00:39:00,
2013-05-19 19:45:00,90.2,69.1,29.51,South,186,14.0,20.0,50,0.00,,---,0.00,VWS V14.01,2013-05-20 00:45:00,
2013-05-19 19:48:00,90.0,69.5,29.52,SSE,148,8.0,20.0,51,0.00,,---,0.00,VWS V14.01,2013-05-20 00:48:00,
2013-05-19 19:54:00,89.7,69.2,29.52,South,180,8.0,20.0,51,0.00,,---,0.00,VWS V14.01,2013-05-20 00:54:00,
2013-05-19 19:58:00,89.5,69.6,29.52,SSW,196,9.0,20.0,52,0.00,,---,0.00,VWS V14.01,2013-05-20 00:58:00,
2013-05-19 20:00:00,89.4,69.5,29.52,South,175,10.0,20.0,52,0.00,,---,0.00,VWS V14.01,2013-05-20 01:00:00,
2013-05-19 20:03:00,89.3,69.4,29.52,SSE,165,5.0,20.0,52,0.00,,---,0.00,VWS V14.01,2013-05-20 01:03:00,
2013-05-19 20:06:00,89.1,69.2,29.52,SSE,151,9.0,20.0,52,0.00,,---,0.00,VWS V14.01,2013-05-20 01:06:00,
2013-05-19 20:09:00,88.9,69.6,29.53,SW,219,8.0,20.0,53,0.00,,---,0.00,VWS V14.01,2013-05-20 01:09:00,
2013-05-19 20:12:00,88.7,69.4,29.53,SSE,168,15.0,21.0,53,0.00,,---,0.00,VWS V14.01,2013-05-20 01:12:00,
2013-05-19 20:15:00,88.6,69.3,29.53,SSE,148,6.0,21.0,53,0.00,,---,0.00,VWS V14.01,2013-05-20 01:15:00,
2013-05-19 20:18:00,88.4,69.7,29.53,SSE,161,10.0,21.0,54,0.00,,---,0.00,VWS V14.01,2013-05-20 01:18:00,
2013-05-19 20:21:00,88.2,69.5,29.53,SSE,168,13.0,21.0,54,0.00,,---,0.00,VWS V14.01,2013-05-20 01:21:00,
2013-05-19 20:24:00,88.0,69.3,29.54,South,178,12.0,21.0,54,0.00,,---,0.00,VWS V14.01,2013-05-20 01:24:00,
2013-05-19 20:27:00,87.8,69.1,29.53,South,178,16.0,21.0,54,0.00,,---,0.00,VWS V14.01,2013-05-20 01:27:00,
2013-05-19 20:28:00,87.7,69.0,29.54,South,178,9.0,21.0,54,0.00,,---,0.00,VWS V14.01,2013-05-20 01:28:00,
2013-05-19 20:36:00,87.5,69.4,29.54,SSE,160,8.0,19.0,55,0.00,,---,0.00,VWS V14.01,2013-05-20 01:36:00,
2013-05-19 20:39:00,87.5,69.4,29.54,SSE,161,5.0,19.0,55,0.00,,---,0.00,VWS V14.01,2013-05-20 01:39:00,
2013-05-19 20:42:00,87.3,69.2,29.54,South,187,7.0,19.0,55,0.00,,---,0.00,VWS V14.01,2013-05-20 01:42:00,
2013-05-19 20:48:00,87.0,68.9,29.54,SSE,161,11.0,19.0,55,0.00,,---,0.00,VWS V14.01,2013-05-20 01:48:00,
2013-05-19 20:51:00,86.9,68.8,29.54,South,183,6.0,19.0,55,0.00,,---,0.00,VWS V14.01,2013-05-20 01:51:00,
2013-05-19 20:54:00,86.8,68.7,29.54,SSE,166,12.0,19.0,55,0.00,,---,0.00,VWS V14.01,2013-05-20 01:54:00,
2013-05-19 21:00:00,86.8,69.2,29.55,SE,138,9.0,18.0,56,0.00,,---,0.00,VWS V14.01,2013-05-20 02:00:00,
2013-05-19 21:06:00,86.6,69.1,29.55,South,181,11.0,18.0,56,0.00,,---,0.00,VWS V14.01,2013-05-20 02:06:00,
2013-05-19 21:09:00,86.5,69.0,29.56,SSE,161,11.0,18.0,56,0.00,,---,0.00,VWS V14.01,2013-05-20 02:09:00,
2013-05-19 21:15:00,86.2,68.7,29.56,SSW,197,6.0,18.0,56,0.00,,---,0.00,VWS V14.01,2013-05-20 02:15:00,
2013-05-19 21:18:00,86.1,68.6,29.56,SSE,163,13.0,18.0,56,0.00,,---,0.00,VWS V14.01,2013-05-20 02:18:00,
2013-05-19 21:21:00,86.2,68.7,29.56,South,180,9.0,20.0,56,0.00,,---,0.00,VWS V14.01,2013-05-20 02:21:00,
2013-05-19 21:24:00,86.3,68.8,29.56,SSE,168,7.0,20.0,56,0.00,,---,0.00,VWS V14.01,2013-05-20 02:24:00,
2013-05-19 21:27:00,86.1,68.6,29.56,SSE,159,10.0,20.0,56,0.00,,---,0.00,VWS V14.01,2013-05-20 02:27:00,
2013-05-19 21:28:00,86.1,68.6,29.56,South,177,8.0,20.0,56,0.00,,---,0.00,VWS V14.01,2013-05-20 02:28:00,
2013-05-19 21:30:00,86.0,69.0,29.57,South,181,11.0,17.0,57,0.00,,---,0.00,VWS V14.01,2013-05-20 02:30:00,
2013-05-19 21:33:00,86.0,69.0,29.57,South,182,8.0,17.0,57,0.00,,---,0.00,VWS V14.01,2013-05-20 02:33:00,
2013-05-19 21:36:00,85.9,68.9,29.57,SSE,166,9.0,17.0,57,0.00,,---,0.00,VWS V14.01,2013-05-20 02:36:00,
2013-05-19 21:39:00,85.8,68.8,29.57,SSE,165,5.0,17.0,57,0.00,,---,0.00,VWS V14.01,2013-05-20 02:39:00,
2013-05-19 21:46:00,85.7,68.7,29.57,SSE,153,12.0,18.0,57,0.00,,---,0.00,VWS V14.01,2013-05-20 02:46:00,
2013-05-19 21:52:00,85.5,69.1,29.58,SSE,163,9.0,18.0,58,0.00,,---,0.00,VWS V14.01,2013-05-20 02:52:00,
2013-05-19 21:55:00,85.4,69.0,29.58,South,175,10.0,18.0,58,0.00,,---,0.00,VWS V14.01,2013-05-20 02:55:00,
2013-05-19 21:58:00,85.3,68.9,29.58,SSE,165,6.0,19.0,58,0.00,,---,0.00,VWS V14.01,2013-05-20 02:58:00,
2013-05-19 22:01:00,85.2,69.3,29.58,South,186,9.0,16.0,59,0.00,,---,0.00,VWS V14.01,2013-05-20 03:01:00,
2013-05-19 22:02:00,83.4,69.0,29.60,SSE,157,9.0,13.0,62,0.00,,---,0.00,VWS V14.01,2013-05-20 03:02:00,
2013-05-19 22:04:00,85.0,69.1,29.58,South,178,7.0,16.0,59,0.00,,---,0.00,VWS V14.01,2013-05-20 03:04:00,
2013-05-19 22:05:00,83.2,68.8,29.60,SSE,166,12.0,13.0,62,0.00,,---,0.00,VWS V14.01,2013-05-20 03:05:00,
2013-05-19 22:07:00,84.8,68.9,29.58,SSE,156,10.0,16.0,59,0.00,,---,0.00,VWS V14.01,2013-05-20 03:07:00,
2013-05-19 22:08:00,83.1,68.7,29.60,South,175,7.0,15.0,62,0.00,,---,0.00,VWS V14.01,2013-05-20 03:08:00,
2013-05-19 22:10:00,84.7,69.3,29.58,SSE,152,7.0,16.0,60,0.00,,---,0.00,VWS V14.01,2013-05-20 03:10:00,
2013-05-19 22:11:00,83.0,69.1,29.60,SSE,164,12.0,15.0,63,0.00,,---,0.00,VWS V14.01,2013-05-20 03:11:00,
2013-05-19 22:13:00,84.6,69.2,29.58,SSE,161,7.0,16.0,60,0.00,,---,0.00,VWS V14.01,2013-05-20 03:13:00,
2013-05-19 22:14:00,83.0,68.7,29.60,SSE,158,8.0,15.0,62,0.00,,---,0.00,VWS V14.01,2013-05-20 03:14:00,
2013-05-19 22:16:00,84.5,69.1,29.58,South,176,14.0,16.0,60,0.00,,---,0.00,VWS V14.01,2013-05-20 03:16:00,
2013-05-19 22:17:00,83.0,68.7,29.60,South,169,7.0,15.0,62,0.00,,---,0.00,VWS V14.01,2013-05-20 03:17:00,
2013-05-19 22:19:00,84.4,69.0,29.58,South,182,10.0,16.0,60,0.00,,---,0.00,VWS V14.01,2013-05-20 03:19:00,
2013-05-19 22:21:00,83.0,69.1,29.60,SSE,160,10.0,15.0,63,0.00,,---,0.00,VWS V14.01,2013-05-20 03:21:00,
2013-05-19 22:24:00,83.0,69.1,29.60,South,189,7.0,15.0,63,0.00,,---,0.00,VWS V14.01,2013-05-20 03:24:00,
2013-05-19 22:25:00,84.1,69.2,29.58,SSE,147,5.0,16.0,61,0.00,,---,0.00,VWS V14.01,2013-05-20 03:25:00,
2013-05-19 22:27:00,82.9,69.0,29.60,South,178,6.0,15.0,63,0.00,,---,0.00,VWS V14.01,2013-05-20 03:27:00,
2013-05-19 22:28:00,83.9,69.0,29.59,South,180,10.0,16.0,61,0.00,,---,0.00,VWS V14.01,2013-05-20 03:28:00,
2013-05-19 22:30:00,82.9,69.0,29.60,South,175,7.0,17.0,63,0.00,,---,0.00,VWS V14.01,2013-05-20 03:30:00,
2013-05-19 22:31:00,83.8,68.9,29.59,South,182,11.0,12.0,61,0.00,,---,0.00,VWS V14.01,2013-05-20 03:31:00,
2013-05-19 22:33:00,82.8,68.9,29.60,SSE,153,15.0,16.0,63,0.00,,---,0.00,VWS V14.01,2013-05-20 03:33:00,
2013-05-19 22:34:00,83.7,69.3,29.59,SE,146,5.0,12.0,62,0.00,,---,0.00,VWS V14.01,2013-05-20 03:34:00,
2013-05-19 22:36:00,82.8,68.9,29.60,SSE,152,11.0,17.0,63,0.00,,---,0.00,VWS V14.01,2013-05-20 03:36:00,
2013-05-19 22:37:00,83.6,69.2,29.59,SSE,159,10.0,14.0,62,0.00,,---,0.00,VWS V14.01,2013-05-20 03:37:00,
2013-05-19 22:39:00,82.7,68.8,29.60,South,184,13.0,17.0,63,0.00,,---,0.00,VWS V14.01,2013-05-20 03:39:00,
2013-05-19 22:40:00,83.6,69.2,29.59,SSE,161,17.0,17.0,62,0.00,,---,0.00,VWS V14.01,2013-05-20 03:40:00,
2013-05-19 22:42:00,82.6,68.7,29.60,SSE,148,12.0,18.0,63,0.00,,---,0.00,VWS V14.01,2013-05-20 03:42:00,
2013-05-19 22:43:00,83.5,69.1,29.59,SSE,148,10.0,17.0,62,0.00,,---,0.00,VWS V14.01,2013-05-20 03:43:00,
2013-05-19 22:45:00,82.5,68.6,29.60,South,171,5.0,18.0,63,0.00,,---,0.00,VWS V14.01,2013-05-20 03:45:00,
2013-05-19 22:46:00,83.4,69.0,29.59,South,173,10.0,17.0,62,0.00,,---,0.00,VWS V14.01,2013-05-20 03:46:00,
2013-05-19 22:48:00,82.3,68.5,29.60,South,186,8.0,18.0,63,0.00,,---,0.00,VWS V14.01,2013-05-20 03:48:00,
2013-05-19 22:49:00,83.4,69.0,29.59,SSE,159,10.0,21.0,62,0.00,,---,0.00,VWS V14.01,2013-05-20 03:49:00,
2013-05-19 22:51:00,82.1,68.7,29.60,SSE,162,7.0,18.0,64,0.00,,---,0.00,VWS V14.01,2013-05-20 03:51:00,
2013-05-19 22:52:00,83.5,69.1,29.60,South,180,15.0,21.0,62,0.00,,---,0.00,VWS V14.01,2013-05-20 03:52:00,
2013-05-19 22:54:00,81.9,68.5,29.60,South,172,4.0,18.0,64,0.00,,---,0.00,VWS V14.01,2013-05-20 03:54:00,
2013-05-19 22:55:00,83.6,69.2,29.60,SSE,167,10.0,21.0,62,0.00,,---,0.00,VWS V14.01,2013-05-20 03:55:00,
2013-05-19 22:57:00,81.8,68.9,29.60,SSE,151,9.0,18.0,65,0.00,,---,0.00,VWS V14.01,2013-05-20 03:57:00,
2013-05-19 22:58:00,83.5,69.1,29.60,South,191,7.0,21.0,62,0.00,,---,0.00,VWS V14.01,2013-05-20 03:58:00,
2013-05-19 23:00:00,81.6,68.7,29.60,SSE,150,10.0,18.0,65,0.00,,---,0.00,VWS V14.01,2013-05-20 04:00:00,
2013-05-19 23:03:00,81.4,68.5,29.60,SE,146,6.0,16.0,65,0.00,,---,0.00,VWS V14.01,2013-05-20 04:03:00,
2013-05-19 23:06:00,81.3,68.4,29.60,SSE,160,8.0,16.0,65,0.00,,---,0.00,VWS V14.01,2013-05-20 04:06:00,
2013-05-19 23:09:00,81.2,68.8,29.60,South,182,6.0,16.0,66,0.00,,---,0.00,VWS V14.01,2013-05-20 04:09:00,
2013-05-19 23:12:00,81.1,68.7,29.60,SSE,159,10.0,16.0,66,0.00,,---,0.00,VWS V14.01,2013-05-20 04:12:00,
2013-05-19 23:15:00,81.0,68.6,29.60,South,173,12.0,16.0,66,0.00,,---,0.00,VWS V14.01,2013-05-20 04:15:00,
2013-05-19 23:18:00,80.9,68.5,29.60,South,174,12.0,18.0,66,0.00,,---,0.00,VWS V14.01,2013-05-20 04:18:00,
2013-05-19 23:21:00,80.9,68.5,29.60,SSW,200,6.0,18.0,66,0.00,,---,0.00,VWS V14.01,2013-05-20 04:21:00,
2013-05-19 23:24:00,80.8,68.4,29.60,SSE,153,9.0,18.0,66,0.00,,---,0.00,VWS V14.01,2013-05-20 04:24:00,
2013-05-19 23:27:00,80.7,68.3,29.60,SSE,166,5.0,18.0,66,0.00,,---,0.00,VWS V14.01,2013-05-20 04:27:00,
2013-05-19 23:30:00,80.6,68.2,29.60,South,169,7.0,18.0,66,0.00,,---,0.00,VWS V14.01,2013-05-20 04:30:00,
2013-05-19 23:33:00,80.5,68.5,29.60,SSE,164,3.0,13.0,67,0.00,,---,0.00,VWS V14.01,2013-05-20 04:33:00,
2013-05-19 23:36:00,80.4,68.4,29.60,South,169,6.0,16.0,67,0.00,,---,0.00,VWS V14.01,2013-05-20 04:36:00,
2013-05-19 23:39:00,80.3,68.3,29.60,South,178,7.0,16.0,67,0.00,,---,0.00,VWS V14.01,2013-05-20 04:39:00,
2013-05-19 23:42:00,80.2,68.3,29.60,SSE,155,10.0,16.0,67,0.00,,---,0.00,VWS V14.01,2013-05-20 04:42:00,
2013-05-19 23:45:00,80.2,68.3,29.60,SSE,151,3.0,17.0,67,0.00,,---,0.00,VWS V14.01,2013-05-20 04:45:00,
2013-05-19 23:48:00,80.2,68.3,29.60,SSE,150,12.0,19.0,67,0.00,,---,0.00,VWS V14.01,2013-05-20 04:48:00,
2013-05-19 23:51:00,80.1,68.2,29.60,South,176,5.0,19.0,67,0.00,,---,0.00,VWS V14.01,2013-05-20 04:51:00,
2013-05-19 23:54:00,79.9,68.0,29.60,SSE,147,11.0,19.0,67,0.00,,---,0.00,VWS V14.01,2013-05-20 04:54:00,
2013-05-19 23:57:00,79.8,68.3,29.60,South,174,9.0,19.0,68,0.00,,---,0.00,VWS V14.01,2013-05-20 04:57:00,